createdAt,value
2022-11-28T00:00:33.841Z,57.40
2022-11-28T00:03:25.808Z,61.10
2022-11-28T00:05:56.596Z,53.90
2022-11-28T00:08:27.590Z,53.00
2022-11-28T00:10:58.159Z,55.90
2022-11-28T00:13:29.206Z,50.80
2022-11-28T00:16:00.592Z,52.80
2022-11-28T00:18:31.940Z,62.60
2022-11-28T00:21:03.631Z,53.40
2022-11-28T00:23:34.849Z,55.40
2022-11-28T00:26:06.401Z,46.60
2022-11-28T00:28:37.183Z,50.90
2022-11-28T00:31:08.533Z,54.50
2022-11-28T00:33:39.847Z,51.60
2022-11-28T00:36:11.430Z,55.20
2022-11-28T00:38:42.946Z,55.90
2022-11-28T00:41:14.903Z,56.90
2022-11-28T00:43:49.539Z,56.50
2022-11-28T00:46:21.665Z,50.30
2022-11-28T00:48:53.115Z,51.40
2022-11-28T00:51:24.587Z,51.10
2022-11-28T00:53:56.393Z,51.80
2022-11-28T00:56:27.611Z,51.00
2022-11-28T00:58:58.790Z,53.10
2022-11-28T01:01:38.327Z,56.40
2022-11-28T01:04:10.968Z,57.50
2022-11-28T01:06:43.276Z,53.70
2022-11-28T01:09:16.324Z,52.40
2022-11-28T01:11:49.550Z,51.20
2022-11-28T01:14:21.710Z,43.00
2022-11-28T01:16:53.126Z,47.20
2022-11-28T01:19:24.204Z,45.00
2022-11-28T01:21:54.935Z,44.50
2022-11-28T01:24:25.834Z,51.00
2022-11-28T01:26:56.223Z,49.60
2022-11-28T01:29:27.550Z,50.30
2022-11-28T01:31:58.949Z,45.00
2022-11-28T01:34:29.837Z,45.10
2022-11-28T01:37:02.073Z,42.40
2022-11-28T01:39:33.310Z,46.40
2022-11-28T01:42:03.825Z,50.60
2022-11-28T01:44:51.641Z,46.40
2022-11-28T01:47:23.774Z,47.00
2022-11-28T01:49:55.842Z,42.50
2022-11-28T01:52:26.633Z,41.50
2022-11-28T01:54:59.911Z,43.90
2022-11-28T01:57:31.016Z,42.30
2022-11-28T02:00:05.732Z,46.80
2022-11-28T02:02:45.675Z,48.30
2022-11-28T02:05:17.945Z,44.50
2022-11-28T02:07:48.656Z,47.00
2022-11-28T02:10:20.207Z,42.20
2022-11-28T02:13:01.151Z,46.60
2022-11-28T02:15:41.813Z,41.80
2022-11-28T02:18:23.679Z,40.00
2022-11-28T02:21:03.901Z,42.70
2022-11-28T02:23:43.100Z,44.80
2022-11-28T02:26:24.955Z,46.10
2022-11-28T02:29:12.182Z,40.30
2022-11-28T02:31:56.797Z,42.70
2022-11-28T02:34:29.939Z,43.50
2022-11-28T02:37:04.648Z,43.80
2022-11-28T02:39:39.075Z,44.90
2022-11-28T02:42:13.594Z,45.10
2022-11-28T02:44:46.064Z,42.80
2022-11-28T02:47:19.670Z,45.00
2022-11-28T02:49:52.965Z,45.40
2022-11-28T02:52:25.839Z,45.60
2022-11-28T02:54:56.935Z,45.20
2022-11-28T02:57:30.590Z,45.80
2022-11-28T03:00:01.733Z,49.40
2022-11-28T03:02:33.449Z,42.60
2022-11-28T03:05:07.181Z,44.70
2022-11-28T03:07:47.940Z,51.90
2022-11-28T03:10:24.768Z,42.80
2022-11-28T03:12:59.390Z,42.60
2022-11-28T03:15:33.893Z,42.50
2022-11-28T03:18:12.764Z,50.50
2022-11-28T03:20:46.650Z,41.80
2022-11-28T03:23:18.464Z,43.50
2022-11-28T03:25:56.979Z,43.80
2022-11-28T03:28:32.558Z,43.90
2022-11-28T03:31:04.473Z,44.50
2022-11-28T03:33:37.905Z,44.00
2022-11-28T03:36:10.782Z,42.80
2022-11-28T03:38:43.485Z,45.80
2022-11-28T03:41:16.457Z,46.40
2022-11-28T03:43:50.893Z,41.40
2022-11-28T03:46:23.894Z,45.50
2022-11-28T03:48:56.700Z,43.00
2022-11-28T03:51:30.187Z,42.40
2022-11-28T03:54:03.181Z,44.00
2022-11-28T03:56:37.773Z,40.30
2022-11-28T03:59:10.953Z,41.30
2022-11-28T04:01:46.033Z,43.60
2022-11-28T04:04:19.537Z,40.70
2022-11-28T04:06:54.590Z,39.20
2022-11-28T04:09:32.275Z,39.60
2022-11-28T04:12:06.184Z,42.30
2022-11-28T04:14:39.052Z,43.60
2022-11-28T04:17:12.264Z,45.50
2022-11-28T04:22:14.508Z,43.60
2022-11-28T04:24:48.575Z,41.00
2022-11-28T04:27:22.783Z,41.40
2022-11-28T04:29:55.343Z,39.80
2022-11-28T04:32:27.104Z,43.40
2022-11-28T04:36:06.957Z,42.40
2022-11-28T04:38:39.392Z,42.90
2022-11-28T04:41:12.829Z,42.30
2022-11-28T04:43:47.621Z,44.30
2022-11-28T04:46:20.366Z,41.50
2022-11-28T04:48:51.069Z,38.50
2022-11-28T04:51:24.003Z,39.90
2022-11-28T04:53:58.435Z,43.10
2022-11-28T04:56:30.453Z,41.30
2022-11-28T04:59:01.960Z,40.90
2022-11-28T05:01:33.820Z,37.40
2022-11-28T05:04:04.369Z,40.00
2022-11-28T05:06:36.565Z,37.20
2022-11-28T05:09:07.739Z,38.30
2022-11-28T05:11:39.055Z,45.40
2022-11-28T05:14:09.983Z,39.10
2022-11-28T05:16:40.958Z,44.50
2022-11-28T05:19:11.641Z,39.80
2022-11-28T05:21:42.928Z,37.80
2022-11-28T05:24:13.920Z,36.20
2022-11-28T05:26:44.797Z,34.80
2022-11-28T05:29:15.392Z,36.80
2022-11-28T05:31:46.529Z,43.10
2022-11-28T05:34:17.368Z,39.40
2022-11-28T05:36:48.736Z,33.80
2022-11-28T05:39:19.248Z,37.50
2022-11-28T05:41:50.799Z,40.20
2022-11-28T05:44:26.602Z,36.40
2022-11-28T05:46:58.212Z,35.40
2022-11-28T05:49:29.197Z,38.30
2022-11-28T05:52:00.291Z,37.30
2022-11-28T05:54:32.044Z,32.90
2022-11-28T05:57:03.189Z,35.60
2022-11-28T05:59:33.876Z,32.10
2022-11-28T06:02:04.922Z,33.30
2022-11-28T06:04:35.561Z,36.10
2022-11-28T06:07:06.941Z,37.30
2022-11-28T06:09:37.977Z,31.30
2022-11-28T06:12:09.582Z,31.50
2022-11-28T06:14:40.680Z,33.20
2022-11-28T06:17:11.614Z,33.40
2022-11-28T06:19:42.401Z,32.70
2022-11-28T06:22:13.705Z,36.20
2022-11-28T06:24:44.322Z,34.60
2022-11-28T06:27:15.372Z,30.20
2022-11-28T06:29:45.761Z,30.50
2022-11-28T06:32:21.881Z,27.90
2022-11-28T06:34:52.793Z,32.30
2022-11-28T06:37:23.856Z,44.50
2022-11-28T06:39:54.352Z,50.80
2022-11-28T06:42:25.290Z,46.30
2022-11-28T06:44:55.719Z,34.60
2022-11-28T06:47:26.654Z,36.30
2022-11-28T06:49:57.277Z,31.50
2022-11-28T06:52:28.831Z,34.10
2022-11-28T06:54:59.990Z,36.00
2022-11-28T06:57:32.845Z,32.60
2022-11-28T07:00:03.699Z,37.20
2022-11-28T07:02:34.550Z,41.60
2022-11-28T07:05:06.047Z,33.60
2022-11-28T07:07:52.770Z,38.20
2022-11-28T07:10:25.222Z,38.60
2022-11-28T07:12:56.550Z,31.80
2022-11-28T07:15:27.548Z,35.60
2022-11-28T07:17:58.569Z,39.30
2022-11-28T07:20:29.162Z,38.60
2022-11-28T07:23:01.701Z,36.00
2022-11-28T07:25:32.427Z,36.00
2022-11-28T07:28:03.397Z,29.50
2022-11-28T07:30:34.475Z,31.30
2022-11-28T07:33:05.247Z,29.70
2022-11-28T07:35:35.975Z,33.40
2022-11-28T07:38:08.012Z,30.00
2022-11-28T07:40:39.295Z,29.30
2022-11-28T07:43:10.524Z,28.40
2022-11-28T07:45:59.334Z,28.70
2022-11-28T07:48:31.556Z,39.90
2022-11-28T07:51:05.423Z,34.20
2022-11-28T07:53:37.673Z,28.60
2022-11-28T07:56:10.082Z,27.10
2022-11-28T07:58:40.841Z,27.50
2022-11-28T08:01:12.473Z,26.00
2022-11-28T08:03:44.790Z,26.40
2022-11-28T08:06:17.286Z,29.40
2022-11-28T08:08:48.627Z,28.20
2022-11-28T08:11:20.035Z,31.60
2022-11-28T08:13:51.910Z,27.60
2022-11-28T08:16:25.226Z,27.20
2022-11-28T08:18:56.716Z,24.40
2022-11-28T08:21:28.823Z,25.50
2022-11-28T08:24:00.433Z,29.60
2022-11-28T08:26:32.175Z,27.10
2022-11-28T08:29:03.770Z,28.30
2022-11-28T08:31:34.978Z,28.70
2022-11-28T08:34:07.143Z,33.50
2022-11-28T08:36:38.391Z,29.50
2022-11-28T08:39:22.963Z,26.20
2022-11-28T08:41:57.553Z,30.50
2022-11-28T08:44:30.627Z,32.50
2022-11-28T08:47:01.337Z,32.10
2022-11-28T08:49:32.732Z,31.70
2022-11-28T08:52:03.981Z,26.70
2022-11-28T08:54:35.066Z,28.70
2022-11-28T08:57:05.857Z,28.40
2022-11-28T08:59:37.548Z,29.00
2022-11-28T09:02:08.390Z,29.70
2022-11-28T09:04:39.734Z,27.40
2022-11-28T09:07:10.264Z,25.80
2022-11-28T09:09:41.652Z,31.60
2022-11-28T09:12:12.340Z,33.30
2022-11-28T09:14:43.508Z,26.70
2022-11-28T09:17:16.145Z,24.80
2022-11-28T09:19:47.508Z,26.60
2022-11-28T09:22:18.104Z,30.30
2022-11-28T09:24:48.981Z,26.90
2022-11-28T09:27:19.618Z,24.00
2022-11-28T09:29:50.747Z,28.50
2022-11-28T09:32:21.589Z,22.90
2022-11-28T09:34:55.699Z,26.70
2022-11-28T09:37:26.845Z,25.80
2022-11-28T09:40:12.583Z,23.60
2022-11-28T09:42:45.142Z,25.80
2022-11-28T09:45:17.162Z,25.80
2022-11-28T09:47:49.957Z,26.40
2022-11-28T09:50:23.742Z,26.50
2022-11-28T09:53:00.122Z,22.20
2022-11-28T09:55:35.258Z,26.20
2022-11-28T09:58:07.917Z,26.70
2022-11-28T10:00:40.342Z,26.90
2022-11-28T10:03:26.647Z,22.80
2022-11-28T10:06:03.351Z,25.00
2022-11-28T10:08:39.179Z,26.90
2022-11-28T10:11:16.286Z,25.40
2022-11-28T10:14:07.856Z,27.40
2022-11-28T10:16:45.132Z,27.40
2022-11-28T10:19:46.112Z,26.70
2022-11-28T10:22:11.404Z,26.50
2022-11-28T10:24:44.124Z,22.40
2022-11-28T10:27:15.689Z,25.30
2022-11-28T10:29:48.791Z,25.10
2022-11-28T10:34:51.453Z,23.80
2022-11-28T10:37:25.492Z,26.20
2022-11-28T10:39:57.962Z,21.60
2022-11-28T10:42:32.378Z,24.10
2022-11-28T10:45:07.756Z,20.90
2022-11-28T10:47:55.457Z,21.90
2022-11-28T10:50:33.997Z,19.10
2022-11-28T10:53:08.132Z,22.10
2022-11-28T10:55:44.558Z,20.70
2022-11-28T10:58:18.332Z,21.00
2022-11-28T11:00:50.731Z,20.40
2022-11-28T11:03:23.724Z,18.80
2022-11-28T11:05:54.658Z,18.40
2022-11-28T11:08:26.970Z,20.10
2022-11-28T11:11:01.502Z,18.90
2022-11-28T11:13:33.310Z,19.50
2022-11-28T11:16:05.612Z,22.60
2022-11-28T11:18:37.903Z,17.50
2022-11-28T11:21:15.998Z,17.10
2022-11-28T11:23:47.686Z,19.10
2022-11-28T11:26:24.816Z,20.60
2022-11-28T11:28:56.406Z,21.30
2022-11-28T11:31:28.116Z,20.20
2022-11-28T11:34:05.105Z,21.90
2022-11-28T11:36:39.405Z,20.60
2022-11-28T11:39:18.193Z,17.60
2022-11-28T11:41:49.674Z,19.70
2022-11-28T11:44:29.477Z,24.50
2022-11-28T11:47:03.326Z,17.80
2022-11-28T11:49:36.024Z,16.90
2022-11-28T11:52:14.953Z,20.30
2022-11-28T11:54:56.621Z,18.20
2022-11-28T11:57:35.219Z,23.30
2022-11-28T12:00:08.276Z,20.60
2022-11-28T12:02:47.656Z,20.60
2022-11-28T12:05:19.439Z,18.50
2022-11-28T12:07:54.042Z,19.70
2022-11-28T12:10:26.334Z,19.80
2022-11-28T12:12:57.144Z,20.60
2022-11-28T12:15:32.550Z,19.50
2022-11-28T12:18:15.247Z,18.80
2022-11-28T12:20:54.201Z,19.60
2022-11-28T12:23:34.899Z,20.60
2022-11-28T12:26:09.648Z,21.80
2022-11-28T12:28:49.990Z,20.10
2022-11-28T12:31:28.193Z,19.30
2022-11-28T12:34:05.089Z,19.70
2022-11-28T12:36:39.283Z,20.20
2022-11-28T12:39:19.284Z,19.90
2022-11-28T12:42:06.464Z,19.60
2022-11-28T12:44:41.150Z,20.80
2022-11-28T12:47:15.505Z,21.00
2022-11-28T12:49:52.447Z,19.80
2022-11-28T12:52:27.097Z,23.10
2022-11-28T12:55:09.299Z,16.70
2022-11-28T12:57:44.862Z,15.70
2022-11-28T13:00:16.144Z,16.30
2022-11-28T13:02:52.331Z,17.50
2022-11-28T13:05:37.227Z,20.10
2022-11-28T13:08:17.222Z,16.60
2022-11-28T13:10:51.376Z,15.70
2022-11-28T13:13:26.003Z,35.90
2022-11-28T13:16:00.475Z,20.70
2022-11-28T13:18:40.014Z,15.30
2022-11-28T13:21:19.656Z,17.80
2022-11-28T13:23:53.447Z,16.00
2022-11-28T13:26:32.869Z,8.30
2022-11-28T13:29:07.746Z,16.20
2022-11-28T13:31:41.365Z,16.10
2022-11-28T13:34:14.287Z,15.70
2022-11-28T13:39:43.272Z,17.60
2022-11-28T13:42:58.884Z,17.20
2022-11-28T13:45:25.059Z,17.90
2022-11-28T13:48:00.742Z,19.20
2022-11-28T13:50:36.285Z,16.40
2022-11-28T13:56:27.944Z,15.90
2022-11-28T13:59:01.014Z,16.10
2022-11-28T14:01:44.160Z,16.10
2022-11-28T14:04:16.230Z,14.50
2022-11-28T14:06:49.496Z,15.50
2022-11-28T14:09:30.859Z,14.00
2022-11-28T14:12:11.227Z,13.50
2022-11-28T14:14:53.536Z,17.80
2022-11-28T14:17:31.954Z,18.00
2022-11-28T14:20:11.998Z,21.10
2022-11-28T14:22:50.513Z,28.40
2022-11-28T14:25:25.489Z,18.60
2022-11-28T14:27:57.925Z,19.20
2022-11-28T14:30:32.161Z,17.50
2022-11-28T14:33:05.696Z,15.40
2022-11-28T14:38:27.630Z,19.60
2022-11-28T14:41:03.551Z,21.60
2022-11-28T14:43:35.145Z,20.80
2022-11-28T14:46:26.677Z,20.60
2022-11-28T14:49:23.869Z,21.40
2022-11-28T14:52:37.180Z,17.30
2022-11-28T14:55:01.925Z,19.30
2022-11-28T15:00:16.667Z,18.40
2022-11-28T15:02:53.254Z,16.60
2022-11-28T15:05:40.763Z,18.90
2022-11-28T15:08:32.899Z,16.50
2022-11-28T15:11:11.912Z,22.70
2022-11-28T15:13:52.125Z,25.10
2022-11-28T15:16:24.184Z,19.20
2022-11-28T15:18:57.658Z,21.80
2022-11-28T15:21:28.841Z,24.90
2022-11-28T15:23:59.479Z,23.30
2022-11-28T15:26:31.671Z,17.70
2022-11-28T15:29:14.197Z,17.50
2022-11-28T15:31:49.419Z,21.40
2022-11-28T15:34:24.682Z,16.70
2022-11-28T15:36:56.116Z,23.10
2022-11-28T15:39:28.801Z,17.10
2022-11-28T15:42:01.369Z,16.50
2022-11-28T15:44:32.817Z,18.10
2022-11-28T15:47:03.675Z,17.30
2022-11-28T15:49:35.578Z,18.00
2022-11-28T15:52:06.663Z,20.00
2022-11-28T15:54:41.582Z,20.70
2022-11-28T15:57:20.494Z,18.10
2022-11-28T15:59:54.012Z,20.30
2022-11-28T16:02:30.306Z,24.30
2022-11-28T16:05:22.379Z,22.00
2022-11-28T16:07:53.498Z,25.80
2022-11-28T16:10:25.747Z,21.80
2022-11-28T16:12:59.864Z,20.90
2022-11-28T16:15:31.376Z,21.50
2022-11-28T16:18:02.044Z,27.40
2022-11-28T16:20:35.523Z,26.00
2022-11-28T16:25:35.239Z,24.60
2022-11-28T16:28:06.358Z,20.00
2022-11-28T16:30:38.294Z,20.70
2022-11-28T16:33:22.401Z,25.20
2022-11-28T16:36:12.584Z,26.60
2022-11-28T16:38:43.929Z,16.80
2022-11-28T16:41:18.649Z,19.60
2022-11-28T16:43:51.538Z,18.80
2022-11-28T16:46:23.293Z,18.70
2022-11-28T16:48:57.155Z,20.30
2022-11-28T16:51:38.002Z,27.40
2022-11-28T16:54:28.432Z,21.30
2022-11-28T16:57:09.747Z,20.10
2022-11-28T16:59:40.622Z,19.20
2022-11-28T17:02:15.767Z,21.90
2022-11-28T17:04:47.583Z,20.40
2022-11-28T17:07:20.501Z,20.30
2022-11-28T17:09:51.526Z,24.50
2022-11-28T17:12:25.667Z,24.50
2022-11-28T17:14:56.557Z,21.30
2022-11-28T17:17:28.632Z,23.00
2022-11-28T17:19:59.463Z,23.50
2022-11-28T17:22:40.386Z,24.20
2022-11-28T17:25:16.183Z,25.60
2022-11-28T17:27:48.374Z,21.70
2022-11-28T17:30:20.456Z,27.10
2022-11-28T17:32:52.446Z,23.10
2022-11-28T17:35:24.451Z,28.60
2022-11-28T17:37:55.264Z,29.90
2022-11-28T17:40:36.877Z,26.20
2022-11-28T17:43:10.659Z,27.70
2022-11-28T17:45:42.007Z,26.80
2022-11-28T17:48:16.238Z,26.50
2022-11-28T17:50:48.796Z,27.40
2022-11-28T17:53:20.377Z,29.20
2022-11-28T17:55:58.765Z,25.60
2022-11-28T17:58:29.522Z,26.30
2022-11-28T18:01:01.224Z,30.90
2022-11-28T18:03:32.201Z,27.40
2022-11-28T18:06:02.956Z,29.20
2022-11-28T18:08:34.044Z,28.70
2022-11-28T18:11:05.518Z,31.40
2022-11-28T18:13:36.457Z,30.30
2022-11-28T18:16:08.039Z,33.20
2022-11-28T18:18:39.418Z,27.40
2022-11-28T18:21:11.069Z,33.70
2022-11-28T18:23:43.281Z,37.10
2022-11-28T18:26:16.372Z,31.50
2022-11-28T18:28:47.407Z,34.90
2022-11-28T18:31:19.530Z,30.70
2022-11-28T18:33:51.084Z,30.90
2022-11-28T18:36:22.929Z,31.20
2022-11-28T18:41:42.854Z,32.70
2022-11-28T18:44:13.483Z,34.80
2022-11-28T18:46:44.991Z,30.50
2022-11-28T18:49:16.826Z,33.00
2022-11-28T18:51:48.584Z,34.00
2022-11-28T18:54:21.562Z,41.20
2022-11-28T18:56:53.035Z,37.90
2022-11-28T18:59:24.167Z,37.70
2022-11-28T19:01:55.863Z,41.30
2022-11-28T19:04:26.763Z,37.60
2022-11-28T19:06:59.232Z,42.10
2022-11-28T19:09:30.582Z,43.40
2022-11-28T19:12:01.724Z,43.40
2022-11-28T19:14:32.928Z,36.50
2022-11-28T19:17:04.015Z,41.50
2022-11-28T19:19:35.764Z,40.10
2022-11-28T19:22:10.803Z,42.30
2022-11-28T19:24:42.864Z,42.50
2022-11-28T19:27:14.699Z,45.70
2022-11-28T19:29:46.464Z,47.40
2022-11-28T19:32:18.293Z,44.10
2022-11-28T19:34:52.460Z,46.50
2022-11-28T19:37:22.886Z,50.50
2022-11-28T19:40:01.074Z,48.40
2022-11-28T19:42:33.843Z,45.30
2022-11-28T19:45:05.007Z,44.70
2022-11-28T19:47:36.532Z,42.00
2022-11-28T19:50:12.253Z,46.80
2022-11-28T19:52:45.202Z,45.20
2022-11-28T19:55:15.922Z,50.30
2022-11-28T19:57:47.744Z,49.70
2022-11-28T20:00:19.825Z,45.90
2022-11-28T20:02:51.002Z,41.10
2022-11-28T20:05:22.108Z,40.60
2022-11-28T20:07:58.489Z,38.60
2022-11-28T20:10:30.269Z,46.00
2022-11-28T20:13:01.934Z,44.60
2022-11-28T20:15:35.647Z,47.50
2022-11-28T20:18:07.887Z,45.60
2022-11-28T20:20:39.200Z,42.80
2022-11-28T20:23:10.283Z,42.80
2022-11-28T20:25:41.807Z,44.20
2022-11-28T20:28:12.969Z,42.60
2022-11-28T20:30:44.719Z,48.20
2022-11-28T20:33:15.568Z,50.00
2022-11-28T20:35:46.290Z,44.60
2022-11-28T20:38:17.264Z,46.50
2022-11-28T20:40:48.268Z,48.50
2022-11-28T20:43:19.176Z,48.80
2022-11-28T20:45:50.239Z,47.20
2022-11-28T20:48:21.209Z,45.00
2022-11-28T20:50:51.888Z,54.60
2022-11-28T20:53:26.802Z,45.70
2022-11-28T20:56:01.850Z,52.40
2022-11-28T20:58:32.588Z,48.30
2022-11-28T21:01:03.461Z,48.20
2022-11-28T21:03:39.001Z,50.00
2022-11-28T21:06:10.478Z,41.70
2022-11-28T21:08:41.286Z,46.10
2022-11-28T21:11:25.265Z,47.00
2022-11-28T21:14:06.209Z,45.50
2022-11-28T21:16:37.304Z,46.50
2022-11-28T21:19:09.668Z,42.20
2022-11-28T21:21:40.854Z,46.20
2022-11-28T21:24:12.829Z,47.10
2022-11-28T21:26:48.151Z,44.30
2022-11-28T21:29:22.277Z,41.60
2022-11-28T21:31:53.615Z,46.20
2022-11-28T21:34:24.681Z,45.10
2022-11-28T21:36:56.190Z,43.00
2022-11-28T21:39:27.208Z,48.10
2022-11-28T21:41:58.251Z,53.00
2022-11-28T21:44:28.982Z,48.30
2022-11-28T21:46:59.562Z,45.60
2022-11-28T21:49:40.588Z,49.40
2022-11-28T21:52:11.875Z,43.60
2022-11-28T21:54:42.711Z,41.70
2022-11-28T21:57:13.314Z,47.40
2022-11-28T21:59:44.371Z,44.50
2022-11-28T22:02:15.584Z,43.60
2022-11-28T22:04:46.899Z,46.40
2022-11-28T22:07:17.966Z,46.00
2022-11-28T22:09:49.679Z,41.60
2022-11-28T22:12:20.817Z,39.10
2022-11-28T22:14:57.369Z,44.80
2022-11-28T22:17:32.853Z,43.50
2022-11-28T22:20:03.660Z,47.50
2022-11-28T22:22:34.495Z,48.50
2022-11-28T22:25:06.889Z,46.00
2022-11-28T22:27:38.834Z,44.90
2022-11-28T22:30:10.374Z,40.90
2022-11-28T22:32:41.732Z,41.40
2022-11-28T22:35:13.064Z,48.10
2022-11-28T22:37:44.886Z,46.90
2022-11-28T22:40:16.956Z,48.30
2022-11-28T22:42:47.656Z,50.80
2022-11-28T22:45:18.467Z,47.80
2022-11-28T22:47:49.714Z,51.90
2022-11-28T22:50:20.858Z,42.10
2022-11-28T22:52:51.602Z,46.40
2022-11-28T22:55:22.653Z,41.90
2022-11-28T22:58:27.884Z,45.50
2022-11-28T23:00:59.391Z,47.40
2022-11-28T23:03:30.324Z,43.00
2022-11-28T23:06:04.639Z,41.40
2022-11-28T23:08:35.752Z,45.90
2022-11-28T23:11:08.662Z,45.30
2022-11-28T23:13:40.063Z,42.50
2022-11-28T23:16:15.594Z,44.60
2022-11-28T23:18:47.773Z,45.70
2022-11-28T23:21:19.027Z,44.30
2022-11-28T23:23:49.709Z,44.60
2022-11-28T23:26:21.567Z,48.20
2022-11-28T23:28:52.870Z,46.30
2022-11-28T23:31:24.585Z,46.80
2022-11-28T23:33:55.450Z,46.50
2022-11-28T23:36:27.552Z,41.70
2022-11-28T23:38:59.173Z,43.40
2022-11-28T23:41:30.676Z,46.50
2022-11-28T23:44:01.653Z,46.80
2022-11-28T23:46:33.462Z,50.00
2022-11-28T23:49:05.583Z,48.40
2022-11-28T23:51:37.034Z,55.60
2022-11-28T23:54:08.380Z,45.90
2022-11-28T23:56:40.396Z,46.60
2022-11-28T23:59:11.723Z,41.30
